Time;durP1;ratioP1;P1;durP2;ratioP2;P2;SDS_P1;SDS_P2;PMS_P1;PMS_P2;Temp;Humidity;BMP_temperature;BMP_pressure;BME280_temperature;BME280_humidity;BME280_pressure;Samples;Min_cycle;Max_cycle;Signal;HPM_P1;HPM_P2
2023/09/24 00:02:19;;;;;;;1.65;1.00;;;22.40;52.40;;;;;;4997041;28;20018;-64
2023/09/24 00:04:45;;;;;;;1.50;0.90;;;22.30;52.30;;;;;;4998560;28;20462;-64
2023/09/24 00:07:13;;;;;;;2.05;0.90;;;22.40;52.40;;;;;;5000689;28;20036;-63
2023/09/24 00:09:39;;;;;;;1.92;0.90;;;22.40;52.40;;;;;;4997187;28;20040;-64
2023/09/24 00:12:05;;;;;;;1.38;0.90;;;22.30;52.30;;;;;;4998815;28;20150;-65
2023/09/24 00:14:30;;;;;;;1.05;0.80;;;22.40;52.40;;;;;;4998915;28;20445;-67
2023/09/24 00:16:57;;;;;;;1.52;0.93;;;22.40;52.40;;;;;;4997230;28;20026;-67
2023/09/24 00:19:24;;;;;;;2.03;1.08;;;22.30;52.30;;;;;;4999236;28;20393;-66
2023/09/24 00:21:50;;;;;;;1.77;1.00;;;22.30;52.30;;;;;;5000475;28;20015;-67
2023/09/24 00:24:18;;;;;;;1.42;0.90;;;22.30;52.30;;;;;;5001343;28;20026;-64
2023/09/24 00:26:45;;;;;;;1.00;0.80;;;22.40;52.40;;;;;;5000026;28;20065;-64
2023/09/24 00:29:12;;;;;;;1.50;1.00;;;22.40;52.40;;;;;;5003059;28;20081;-64
2023/09/24 00:31:37;;;;;;;1.05;0.75;;;22.30;52.30;;;;;;5001753;28;20037;-64
2023/09/24 00:34:04;;;;;;;1.80;1.23;;;22.30;52.40;;;;;;5001100;28;20369;-64
2023/09/24 00:36:29;;;;;;;1.50;1.00;;;22.30;52.40;;;;;;5004060;28;20029;-63
2023/09/24 00:38:55;;;;;;;1.38;0.93;;;22.30;52.40;;;;;;4999618;28;20127;-65
2023/09/24 00:41:20;;;;;;;1.25;0.88;;;22.30;52.40;;;;;;5000560;28;20034;-64
2023/09/24 00:43:46;;;;;;;1.42;0.90;;;22.30;52.40;;;;;;5000775;28;20030;-64
2023/09/24 00:46:13;;;;;;;1.77;1.13;;;22.30;52.90;;;;;;5003346;28;20079;-64
2023/09/24 00:48:39;;;;;;;2.00;1.10;;;22.30;52.40;;;;;;5002736;28;20037;-64
2023/09/24 00:51:19;;;;;;;1.20;0.90;;;22.30;52.40;;;;;;5002783;28;20038;-63
2023/09/24 00:53:46;;;;;;;1.58;0.90;;;22.30;52.40;;;;;;5000666;28;20422;-64
2023/09/24 00:56:12;;;;;;;1.45;0.90;;;22.30;52.40;;;;;;5002723;28;20034;-65
2023/09/24 00:58:38;;;;;;;1.52;1.08;;;22.30;52.40;;;;;;5001038;28;20041;-65
2023/09/24 01:01:04;;;;;;;1.45;0.95;;;22.30;52.40;;;;;;5002235;28;20023;-64
2023/09/24 01:03:31;;;;;;;1.17;0.90;;;22.20;52.30;;;;;;4999792;28;20367;-64
2023/09/24 01:05:58;;;;;;;1.35;0.80;;;22.30;52.40;;;;;;5002155;28;20022;-64
2023/09/24 01:08:29;;;;;;;1.40;0.90;;;22.30;52.40;;;;;;5002537;28;20037;-64
2023/09/24 01:10:57;;;;;;;1.73;0.90;;;22.30;52.40;;;;;;5001695;28;20026;-65
2023/09/24 01:13:23;;;;;;;1.25;0.80;;;22.30;52.50;;;;;;5016381;28;20093;-68
2023/09/24 01:15:52;;;;;;;1.50;0.90;;;22.30;52.50;;;;;;5000453;28;20034;-68
2023/09/24 01:18:19;;;;;;;1.13;0.82;;;22.20;52.40;;;;;;4999833;28;20105;-69
2023/09/24 01:20:45;;;;;;;1.48;0.93;;;22.30;52.40;;;;;;4999591;28;20035;-68
2023/09/24 01:23:14;;;;;;;1.67;1.00;;;22.30;52.50;;;;;;5001868;28;20076;-68
2023/09/24 01:25:40;;;;;;;1.10;0.80;;;22.30;52.40;;;;;;5013588;28;20022;-68
2023/09/24 01:28:07;;;;;;;1.33;0.82;;;22.30;52.50;;;;;;5001268;28;20038;-68
2023/09/24 01:30:34;;;;;;;1.30;0.90;;;22.30;52.50;;;;;;5001686;28;20058;-69
2023/09/24 01:33:00;;;;;;;1.42;0.90;;;22.30;52.50;;;;;;4998889;28;20037;-64
2023/09/24 01:35:28;;;;;;;1.13;0.80;;;22.20;52.40;;;;;;4999647;28;20081;-64
2023/09/24 01:38:00;;;;;;;1.42;0.90;;;22.20;52.40;;;;;;4999056;28;20125;-63
2023/09/24 01:40:27;;;;;;;1.50;0.85;;;22.20;52.40;;;;;;4997928;28;20623;-63
2023/09/24 01:42:58;;;;;;;1.52;0.90;;;22.30;52.50;;;;;;5007718;28;20663;-64
2023/09/24 01:45:24;;;;;;;1.33;0.85;;;22.20;52.40;;;;;;5000750;28;20084;-63
2023/09/24 01:47:50;;;;;;;1.00;0.73;;;22.20;52.40;;;;;;5000058;28;20489;-63
2023/09/24 01:50:18;;;;;;;1.13;0.77;;;22.20;52.50;;;;;;5001734;28;20120;-63
2023/09/24 01:52:47;;;;;;;1.23;0.80;;;22.20;52.50;;;;;;5001900;28;20070;-62
2023/09/24 01:55:16;;;;;;;0.77;0.70;;;22.20;52.50;;;;;;5001524;28;20424;-64
2023/09/24 01:57:45;;;;;;;1.20;0.80;;;22.20;52.40;;;;;;5000640;28;20137;-62
2023/09/24 02:00:12;;;;;;;0.98;0.80;;;22.20;52.40;;;;;;4998003;28;20065;-63
2023/09/24 02:02:38;;;;;;;1.52;0.90;;;22.20;52.50;;;;;;5000134;28;20490;-63
2023/09/24 02:05:07;;;;;;;1.08;0.77;;;22.20;52.50;;;;;;4998188;28;20387;-63
2023/09/24 02:07:33;;;;;;;1.48;0.90;;;22.20;52.50;;;;;;4997983;28;20490;-63
2023/09/24 02:09:58;;;;;;;1.10;0.80;;;22.20;52.50;;;;;;4999892;28;20030;-63
2023/09/24 02:12:25;;;;;;;1.23;0.80;;;22.20;52.50;;;;;;5000597;28;20030;-64
2023/09/24 02:14:52;;;;;;;1.33;0.80;;;22.20;52.50;;;;;;4999877;28;20026;-62
2023/09/24 02:17:18;;;;;;;1.35;0.90;;;22.20;52.50;;;;;;5000369;28;20113;-64
2023/09/24 02:19:44;;;;;;;1.25;0.90;;;22.20;52.50;;;;;;4998051;28;20536;-63
2023/09/24 02:22:11;;;;;;;1.27;0.80;;;22.20;52.50;;;;;;4998696;28;20046;-64
2023/09/24 02:24:38;;;;;;;1.30;0.80;;;22.20;52.50;;;;;;5001497;28;20030;-66
2023/09/24 02:27:06;;;;;;;1.10;0.80;;;22.20;52.50;;;;;;4998930;28;20156;-66
2023/09/24 02:29:31;;;;;;;1.13;0.82;;;22.10;52.50;;;;;;4998864;28;20034;-67
2023/09/24 02:31:57;;;;;;;1.17;0.70;;;22.10;52.50;;;;;;5000636;28;20026;-66
2023/09/24 02:34:23;;;;;;;0.90;0.75;;;22.10;52.50;;;;;;4996622;28;20104;-66
2023/09/24 02:36:51;;;;;;;1.02;0.80;;;22.10;52.50;;;;;;4999214;28;20057;-66
2023/09/24 02:39:20;;;;;;;;;;;22.10;52.50;;;;;;4999559;28;20115;-66
2023/09/24 02:41:45;;;;;;;0.90;0.75;;;22.10;52.50;;;;;;5000683;28;20027;-66
2023/09/24 02:44:11;;;;;;;1.05;0.75;;;22.10;52.50;;;;;;5000360;28;20109;-68
2023/09/24 02:46:37;;;;;;;1.23;0.80;;;22.10;52.50;;;;;;4999600;28;20538;-68
2023/09/24 02:49:03;;;;;;;0.95;0.80;;;22.10;52.50;;;;;;5000366;28;20032;-68
2023/09/24 02:51:28;;;;;;;1.25;0.85;;;22.10;52.50;;;;;;5001889;28;20113;-68
2023/09/24 02:53:54;;;;;;;1.10;0.70;;;22.10;52.50;;;;;;4997169;28;20052;-68
2023/09/24 02:56:19;;;;;;;1.23;0.70;;;22.10;52.50;;;;;;5001750;28;20027;-69
2023/09/24 02:58:45;;;;;;;1.02;0.80;;;22.10;52.50;;;;;;4998363;28;20042;-68
2023/09/24 03:01:20;;;;;;;0.95;0.68;;;22.10;52.50;;;;;;5001019;28;20477;-68
2023/09/24 03:03:45;;;;;;;1.27;0.80;;;22.10;52.60;;;;;;4998917;28;20026;-69
2023/09/24 03:06:12;;;;;;;2.00;0.80;;;22.10;52.60;;;;;;5000045;28;20604;-68
2023/09/24 03:08:38;;;;;;;0.95;0.75;;;22.10;52.60;;;;;;4999699;28;20564;-68
2023/09/24 03:11:17;;;;;;;0.80;0.60;;;22.10;52.50;;;;;;4999897;28;20109;-68
2023/09/24 03:13:42;;;;;;;0.95;0.70;;;22.10;52.60;;;;;;4998384;28;20038;-68
2023/09/24 03:16:08;;;;;;;1.00;0.80;;;22.10;52.60;;;;;;4999305;28;20034;-68
2023/09/24 03:18:34;;;;;;;0.73;0.70;;;22.10;52.60;;;;;;4997815;28;20041;-68
2023/09/24 03:21:00;;;;;;;0.82;0.68;;;22.10;52.60;;;;;;4997751;28;20034;-69
2023/09/24 03:23:25;;;;;;;0.88;0.75;;;22.00;52.50;;;;;;4998498;28;20117;-68
2023/09/24 03:25:51;;;;;;;0.80;0.70;;;22.10;52.60;;;;;;4999188;28;20030;-68
2023/09/24 03:28:17;;;;;;;0.70;0.60;;;22.00;52.50;;;;;;5001131;28;20678;-68
2023/09/24 03:30:42;;;;;;;1.35;0.80;;;22.10;52.60;;;;;;4997487;28;20104;-68
2023/09/24 03:33:08;;;;;;;1.45;0.80;;;22.00;52.50;;;;;;4996592;28;20026;-68
2023/09/24 03:35:34;;;;;;;1.20;0.75;;;22.00;52.60;;;;;;4998686;28;20033;-66
2023/09/24 03:37:59;;;;;;;0.65;0.65;;;22.00;52.60;;;;;;4998383;28;20474;-67
2023/09/24 03:40:27;;;;;;;1.00;0.70;;;22.00;52.60;;;;;;4998408;28;20085;-67
2023/09/24 03:42:53;;;;;;;1.23;0.80;;;22.00;52.60;;;;;;5000147;28;20116;-67
2023/09/24 03:45:22;;;;;;;0.80;0.70;;;22.00;52.60;;;;;;4998117;28;20023;-66
2023/09/24 03:47:48;;;;;;;0.90;0.70;;;22.00;52.60;;;;;;5013162;28;20031;-66
2023/09/24 03:50:17;;;;;;;1.00;0.80;;;22.00;52.60;;;;;;4996344;28;20406;-66
2023/09/24 03:52:50;;;;;;;1.00;0.70;;;22.00;52.60;;;;;;4996883;28;20064;-66
2023/09/24 03:55:16;;;;;;;0.85;0.60;;;22.00;52.60;;;;;;5001451;28;20069;-66
2023/09/24 03:57:43;;;;;;;0.85;0.77;;;22.00;52.60;;;;;;4997856;28;20069;-66
2023/09/24 04:00:18;;;;;;;1.05;0.68;;;22.00;52.60;;;;;;4996361;28;20026;-66
2023/09/24 04:02:48;;;;;;;1.20;0.70;;;22.00;52.60;;;;;;4996833;28;20057;-66
2023/09/24 04:05:17;;;;;;;1.05;0.80;;;22.00;52.60;;;;;;4997977;28;20621;-66
2023/09/24 04:07:47;;;;;;;1.10;0.70;;;22.00;52.60;;;;;;4996497;28;20030;-66
2023/09/24 04:10:14;;;;;;;;;;;22.00;52.60;;;;;;4998958;28;20149;-66
2023/09/24 04:12:46;;;;;;;0.88;0.70;;;22.00;52.60;;;;;;4996708;28;19932;-65
2023/09/24 04:15:12;;;;;;;0.85;0.70;;;22.00;52.60;;;;;;4999334;28;20121;-66
2023/09/24 04:17:41;;;;;;;0.80;0.70;;;22.00;52.70;;;;;;4996971;28;20030;-66
2023/09/24 04:20:08;;;;;;;0.90;0.70;;;22.00;52.60;;;;;;4999094;28;20446;-64
2023/09/24 04:22:33;;;;;;;0.65;0.60;;;22.00;52.60;;;;;;4998150;28;20034;-66
2023/09/24 04:24:59;;;;;;;1.30;0.80;;;22.00;52.70;;;;;;4999046;28;20077;-66
2023/09/24 04:27:26;;;;;;;0.95;0.70;;;22.00;52.70;;;;;;4997437;28;20097;-65
2023/09/24 04:29:52;;;;;;;1.17;0.70;;;22.00;52.70;;;;;;4999238;28;20477;-65
2023/09/24 04:32:18;;;;;;;0.98;0.70;;;21.90;52.60;;;;;;5001585;28;20030;-65
2023/09/24 04:34:47;;;;;;;1.08;0.70;;;21.90;52.60;;;;;;4997627;28;20514;-65
2023/09/24 04:37:16;;;;;;;;;;;21.90;52.60;;;;;;4998951;28;20038;-67
2023/09/24 04:39:44;;;;;;;0.63;0.60;;;21.90;52.70;;;;;;4997707;28;19912;-65
2023/09/24 04:42:11;;;;;;;1.25;0.75;;;21.90;52.70;;;;;;4999000;28;20030;-66
2023/09/24 04:44:38;;;;;;;0.60;0.57;;;21.90;52.60;;;;;;4998343;28;20018;-65
2023/09/24 04:47:06;;;;;;;0.60;0.52;;;21.90;52.70;;;;;;4996952;28;20040;-65
2023/09/24 04:49:32;;;;;;;0.75;0.63;;;21.90;52.70;;;;;;4998498;28;20080;-67
2023/09/24 04:51:58;;;;;;;0.75;0.68;;;21.90;52.70;;;;;;4996462;28;20065;-67
2023/09/24 04:54:23;;;;;;;0.75;0.60;;;21.90;52.70;;;;;;4999471;28;20116;-65
2023/09/24 04:56:49;;;;;;;0.70;0.70;;;21.90;52.70;;;;;;4997166;28;20049;-65
2023/09/24 04:59:15;;;;;;;0.80;0.70;;;21.90;52.70;;;;;;5005372;28;20037;-65
2023/09/24 05:01:40;;;;;;;1.15;0.65;;;21.90;52.80;;;;;;4998659;28;20037;-65
2023/09/24 05:04:06;;;;;;;0.70;0.70;;;21.90;52.80;;;;;;4998117;28;20029;-64
2023/09/24 05:06:34;;;;;;;1.23;0.70;;;21.90;52.80;;;;;;4998577;28;20044;-64
2023/09/24 05:09:00;;;;;;;1.02;0.70;;;21.90;52.80;;;;;;5000446;28;20022;-65
2023/09/24 05:11:26;;;;;;;1.00;0.70;;;21.90;52.80;;;;;;5001805;28;20502;-63
2023/09/24 05:13:52;;;;;;;0.85;0.70;;;21.90;52.80;;;;;;5000255;28;20532;-64
2023/09/24 05:16:19;;;;;;;0.60;0.50;;;21.90;52.70;;;;;;5000535;28;20470;-65
2023/09/24 05:18:45;;;;;;;0.70;0.60;;;21.90;52.80;;;;;;5000636;28;20081;-63
2023/09/24 05:21:19;;;;;;;0.85;0.68;;;21.90;52.70;;;;;;5002910;28;20482;-63
2023/09/24 05:23:45;;;;;;;1.42;0.93;;;21.90;52.70;;;;;;4999817;28;20026;-63
2023/09/24 05:26:13;;;;;;;1.13;0.70;;;21.90;52.70;;;;;;5002491;28;20034;-64
2023/09/24 05:28:39;;;;;;;0.95;0.70;;;21.90;52.70;;;;;;5000723;28;20501;-64
2023/09/24 05:31:05;;;;;;;0.80;0.70;;;21.90;52.70;;;;;;4999306;28;20026;-63
2023/09/24 05:33:31;;;;;;;0.70;0.60;;;21.90;52.70;;;;;;5000135;28;20460;-64
2023/09/24 05:35:56;;;;;;;0.77;0.68;;;21.90;52.60;;;;;;4999700;28;20049;-64
2023/09/24 05:38:22;;;;;;;0.82;0.60;;;21.90;52.60;;;;;;5001282;28;20077;-64
2023/09/24 05:40:48;;;;;;;1.00;0.60;;;21.80;52.50;;;;;;5000724;28;20470;-64
2023/09/24 05:43:14;;;;;;;0.82;0.70;;;21.90;52.50;;;;;;4999305;28;20030;-63
2023/09/24 05:45:47;;;;;;;0.70;0.60;;;21.80;52.50;;;;;;5000659;28;20037;-64
2023/09/24 05:48:17;;;;;;;0.77;0.60;;;21.80;52.50;;;;;;5000238;28;20488;-64
2023/09/24 05:50:43;;;;;;;0.73;0.60;;;21.80;52.40;;;;;;5001652;28;20067;-63
2023/09/24 05:53:10;;;;;;;0.90;0.70;;;21.80;52.40;;;;;;5001365;28;20026;-64
2023/09/24 05:55:36;;;;;;;0.77;0.70;;;21.80;52.40;;;;;;5000854;28;20431;-68
2023/09/24 05:58:06;;;;;;;0.85;0.70;;;21.80;52.40;;;;;;4999531;28;20161;-68
2023/09/24 06:00:35;;;;;;;0.52;0.52;;;21.80;52.40;;;;;;5007936;28;20088;-68
2023/09/24 06:03:02;;;;;;;0.90;0.68;;;21.80;52.40;;;;;;5001618;28;20108;-68
2023/09/24 06:05:28;;;;;;;0.90;0.60;;;21.80;52.40;;;;;;4997433;28;20117;-66
2023/09/24 06:07:54;;;;;;;0.98;0.70;;;21.80;52.40;;;;;;5017114;28;20088;-65
2023/09/24 06:10:20;;;;;;;0.80;0.70;;;21.80;52.40;;;;;;5000292;28;20030;-65
2023/09/24 06:12:46;;;;;;;0.65;0.60;;;21.80;52.40;;;;;;5000372;28;20352;-66
2023/09/24 06:15:13;;;;;;;0.80;0.77;;;21.80;52.40;;;;;;5001406;28;20081;-64
2023/09/24 06:17:42;;;;;;;0.93;0.70;;;21.80;52.40;;;;;;4999581;28;20424;-66
2023/09/24 06:20:08;;;;;;;0.60;0.60;;;21.80;52.40;;;;;;5000337;28;20114;-65
2023/09/24 06:22:35;;;;;;;0.75;0.57;;;21.80;52.40;;;;;;5000952;28;20030;-63
2023/09/24 06:25:00;;;;;;;0.60;0.60;;;21.80;52.40;;;;;;4999899;28;20030;-65
2023/09/24 06:27:26;;;;;;;0.60;0.60;;;21.80;52.40;;;;;;4998748;28;20366;-64
2023/09/24 06:29:52;;;;;;;0.73;0.60;;;21.80;52.90;;;;;;4998636;28;20121;-64
2023/09/24 06:32:18;;;;;;;0.65;0.65;;;21.80;52.90;;;;;;5000555;28;20881;-63
2023/09/24 06:34:43;;;;;;;0.73;0.60;;;21.80;52.40;;;;;;4996113;28;20149;-64
2023/09/24 06:37:09;;;;;;;0.65;0.60;;;21.80;52.40;;;;;;4998331;28;20389;-65
2023/09/24 06:39:35;;;;;;;0.70;0.70;;;21.80;52.40;;;;;;4997809;28;20054;-64
2023/09/24 06:42:01;;;;;;;0.80;0.60;;;21.80;52.40;;;;;;5000520;28;20030;-64
2023/09/24 06:44:26;;;;;;;0.60;0.60;;;21.80;52.90;;;;;;4999116;28;20026;-64
2023/09/24 06:46:55;;;;;;;0.98;0.63;;;21.80;52.90;;;;;;5001136;28;20026;-64
2023/09/24 06:49:21;;;;;;;0.70;0.60;;;21.80;52.40;;;;;;5001207;28;20030;-65
2023/09/24 06:51:46;;;;;;;1.40;0.60;;;21.80;52.40;;;;;;4997669;28;20060;-64
2023/09/24 06:54:12;;;;;;;1.00;0.65;;;21.80;52.40;;;;;;4998113;28;20827;-64
2023/09/24 06:56:38;;;;;;;0.85;0.70;;;21.80;52.50;;;;;;4997517;28;20041;-65
2023/09/24 06:59:09;;;;;;;0.63;0.60;;;21.80;52.50;;;;;;4999554;28;20057;-64
2023/09/24 07:01:36;;;;;;;0.57;0.50;;;21.80;52.50;;;;;;4999523;28;20486;-63
2023/09/24 07:04:02;;;;;;;0.60;0.60;;;21.80;52.50;;;;;;4998181;28;20549;-66
2023/09/24 07:06:28;;;;;;;1.33;0.70;;;21.80;52.50;;;;;;4999723;28;20443;-65
2023/09/24 07:08:53;;;;;;;0.70;0.70;;;21.80;52.50;;;;;;4998386;28;20041;-66
2023/09/24 07:11:31;;;;;;;1.58;0.60;;;21.80;52.50;;;;;;5001029;28;20426;-65
2023/09/24 07:13:57;;;;;;;0.93;0.70;;;21.80;52.60;;;;;;4998793;28;20508;-64
2023/09/24 07:16:24;;;;;;;0.65;0.57;;;21.80;52.50;;;;;;4998831;28;20065;-64
2023/09/24 07:18:51;;;;;;;0.80;0.60;;;21.80;52.50;;;;;;4998677;28;20104;-64
2023/09/24 07:21:18;;;;;;;0.63;0.60;;;21.80;52.50;;;;;;4998660;28;20056;-64
2023/09/24 07:23:44;;;;;;;0.85;0.70;;;21.80;52.50;;;;;;4998852;28;20470;-67
2023/09/24 07:26:10;;;;;;;1.02;0.65;;;21.80;52.50;;;;;;4999270;28;20018;-68
2023/09/24 07:28:36;;;;;;;1.08;0.70;;;21.80;52.50;;;;;;4999225;28;20144;-68
2023/09/24 07:31:01;;;;;;;1.10;0.60;;;21.80;52.50;;;;;;4998958;28;20038;-68
2023/09/24 07:33:27;;;;;;;0.70;0.60;;;21.80;52.50;;;;;;4998745;28;20561;-68
2023/09/24 07:35:53;;;;;;;0.95;0.70;;;21.70;52.50;;;;;;4998169;28;20033;-67
2023/09/24 07:38:18;;;;;;;0.88;0.63;;;21.80;52.50;;;;;;4999582;28;20105;-67
2023/09/24 07:40:44;;;;;;;1.00;0.68;;;21.80;52.50;;;;;;5000132;28;20033;-67
2023/09/24 07:43:11;;;;;;;0.80;0.65;;;21.80;52.50;;;;;;4998777;28;20033;-68
2023/09/24 07:45:36;;;;;;;1.88;0.60;;;21.80;52.50;;;;;;5000776;28;20362;-68
2023/09/24 07:48:04;;;;;;;1.20;0.68;;;21.80;52.50;;;;;;4999265;28;20026;-68
2023/09/24 07:50:30;;;;;;;0.63;0.63;;;21.70;52.50;;;;;;4996931;28;20034;-68
2023/09/24 07:52:57;;;;;;;0.88;0.70;;;21.70;52.50;;;;;;4999297;28;20026;-68
2023/09/24 07:55:22;;;;;;;1.83;0.70;;;21.70;52.50;;;;;;4998226;28;20026;-68
2023/09/24 07:57:48;;;;;;;0.95;0.70;;;21.70;52.50;;;;;;4999116;28;20046;-68
2023/09/24 08:00:14;;;;;;;0.70;0.60;;;21.80;53.10;;;;;;4999280;28;20438;-68
2023/09/24 08:02:40;;;;;;;0.90;0.60;;;21.70;52.50;;;;;;4998493;28;20053;-68
2023/09/24 08:05:05;;;;;;;1.33;0.60;;;21.70;52.50;;;;;;4997739;28;20101;-67
2023/09/24 08:07:32;;;;;;;0.90;0.63;;;21.80;52.50;;;;;;4998424;28;20371;-68
2023/09/24 08:09:58;;;;;;;0.95;0.60;;;21.70;52.50;;;;;;4997590;28;20034;-68
2023/09/24 08:12:24;;;;;;;1.17;0.70;;;21.80;52.60;;;;;;4998264;28;20042;-67
2023/09/24 08:14:50;;;;;;;0.80;0.70;;;21.70;52.50;;;;;;4998341;28;20037;-68
2023/09/24 08:17:15;;;;;;;0.60;0.57;;;21.70;52.40;;;;;;4998753;28;20026;-67
2023/09/24 08:19:41;;;;;;;0.80;0.63;;;21.70;52.40;;;;;;4997854;28;20474;-67
2023/09/24 08:22:07;;;;;;;1.88;0.60;;;21.80;52.50;;;;;;5011487;28;20030;-68
2023/09/24 08:24:32;;;;;;;1.63;0.85;;;21.70;52.40;;;;;;4999345;28;20129;-67
2023/09/24 08:26:58;;;;;;;0.75;0.63;;;21.70;52.40;;;;;;4997002;28;20133;-68
2023/09/24 08:29:24;;;;;;;0.80;0.65;;;21.70;52.40;;;;;;4998932;28;20117;-68
2023/09/24 08:31:50;;;;;;;0.75;0.70;;;21.80;52.50;;;;;;4997413;28;20093;-68
2023/09/24 08:34:16;;;;;;;1.45;0.60;;;21.70;52.40;;;;;;4999200;28;20405;-68
2023/09/24 08:36:41;;;;;;;1.30;0.60;;;21.70;52.40;;;;;;4996964;28;20030;-68
2023/09/24 08:39:08;;;;;;;1.52;0.52;;;21.80;52.50;;;;;;5001186;28;20034;-68
2023/09/24 08:41:41;;;;;;;0.90;0.60;;;21.70;52.40;;;;;;4999800;28;20014;-67
2023/09/24 08:44:14;;;;;;;0.75;0.65;;;21.70;52.40;;;;;;5002215;28;20402;-68
2023/09/24 08:46:41;;;;;;;1.50;0.68;;;21.70;52.40;;;;;;5000670;28;20445;-68
2023/09/24 08:49:08;;;;;;;1.10;0.70;;;21.70;52.50;;;;;;4999851;28;20470;-68
2023/09/24 08:51:33;;;;;;;0.80;0.60;;;21.70;52.50;;;;;;5014764;28;20034;-68
2023/09/24 08:54:00;;;;;;;0.60;0.60;;;21.70;52.50;;;;;;5002250;28;20034;-68
2023/09/24 08:56:26;;;;;;;0.65;0.65;;;21.70;52.50;;;;;;5003021;28;20508;-68
2023/09/24 08:58:53;;;;;;;0.98;0.68;;;21.70;52.50;;;;;;5002197;28;20026;-68
2023/09/24 09:01:19;;;;;;;1.08;0.70;;;21.70;52.50;;;;;;5001885;28;20034;-68
2023/09/24 09:03:45;;;;;;;2.55;0.80;;;21.70;52.50;;;;;;5002446;28;20100;-69
2023/09/24 09:06:28;;;;;;;1.38;0.85;;;21.70;52.50;;;;;;5000730;28;20026;-68
2023/09/24 09:08:54;;;;;;;1.00;0.70;;;21.70;52.50;;;;;;5002977;28;20080;-68
2023/09/24 09:11:20;;;;;;;0.90;0.65;;;21.70;52.50;;;;;;5001937;28;20038;-68
2023/09/24 09:13:49;;;;;;;0.65;0.50;;;21.70;52.50;;;;;;5000832;28;20029;-68
2023/09/24 09:16:16;;;;;;;0.50;0.50;;;21.70;52.50;;;;;;5000392;28;20030;-67
2023/09/24 09:18:42;;;;;;;1.25;0.80;;;21.70;52.50;;;;;;5001742;28;20417;-67
2023/09/24 09:21:08;;;;;;;0.77;0.57;;;21.70;52.50;;;;;;5000636;28;20062;-68
2023/09/24 09:23:36;;;;;;;1.25;0.80;;;21.70;52.40;;;;;;5001026;28;20121;-68
2023/09/24 09:26:03;;;;;;;1.40;0.80;;;21.70;52.40;;;;;;5001837;28;20518;-63
2023/09/24 09:28:34;;;;;;;1.00;0.70;;;21.70;52.40;;;;;;5017395;28;20329;-63
2023/09/24 09:31:12;;;;;;;1.02;0.73;;;21.70;52.40;;;;;;5000015;28;20030;-63
2023/09/24 09:33:39;;;;;;;1.38;0.90;;;21.70;52.40;;;;;;5002010;28;20105;-63
2023/09/24 09:36:22;;;;;;;1.15;0.60;;;21.70;52.40;;;;;;5000056;28;20035;-62
2023/09/24 09:38:50;;;;;;;1.23;0.80;;;21.70;52.30;;;;;;5001560;28;20100;-64
2023/09/24 09:41:17;;;;;;;1.30;0.77;;;21.70;52.30;;;;;;5001643;28;20041;-64
2023/09/24 09:43:47;;;;;;;1.02;0.70;;;21.70;52.30;;;;;;5008382;28;20117;-67
2023/09/24 09:46:23;;;;;;;1.42;0.70;;;21.70;52.30;;;;;;5009522;28;20026;-68
2023/09/24 09:48:53;;;;;;;1.42;0.80;;;21.70;52.30;;;;;;5001468;28;20027;-67
2023/09/24 09:51:19;;;;;;;1.38;0.90;;;21.70;52.30;;;;;;4998349;28;20034;-67
2023/09/24 09:53:46;;;;;;;0.77;0.60;;;21.70;52.30;;;;;;4999644;28;20022;-68
2023/09/24 09:56:12;;;;;;;0.90;0.70;;;21.70;52.30;;;;;;5002086;28;20044;-67
2023/09/24 09:58:38;;;;;;;1.50;0.80;;;21.70;52.30;;;;;;4998684;28;20484;-67
2023/09/24 10:01:05;;;;;;;1.17;0.80;;;21.70;52.20;;;;;;5000783;28;20030;-68
2023/09/24 10:03:35;;;;;;;1.38;0.80;;;21.70;52.30;;;;;;4999549;28;20113;-68
2023/09/24 10:06:03;;;;;;;1.35;0.70;;;21.70;52.20;;;;;;4998219;28;20057;-67
2023/09/24 10:08:43;;;;;;;1.42;0.80;;;21.70;52.20;;;;;;4999430;28;20053;-67
2023/09/24 10:11:11;;;;;;;1.10;0.70;;;21.70;52.20;;;;;;5003484;28;20430;-68
2023/09/24 10:13:46;;;;;;;0.95;0.70;;;21.70;52.20;;;;;;5000308;28;20142;-67
2023/09/24 10:16:32;;;;;;;1.88;0.90;;;21.70;52.10;;;;;;5002271;28;20034;-68
2023/09/24 10:19:03;;;;;;;2.17;1.00;;;21.70;52.20;;;;;;5001288;28;20422;-67
2023/09/24 10:21:43;;;;;;;0.93;0.80;;;21.70;52.10;;;;;;5000723;28;20022;-68
2023/09/24 10:24:14;;;;;;;2.58;0.90;;;21.70;52.10;;;;;;4999351;28;20460;-68
2023/09/24 10:26:50;;;;;;;2.30;1.00;;;21.70;52.10;;;;;;5000579;28;20486;-67
2023/09/24 10:29:39;;;;;;;1.17;0.70;;;21.70;52.10;;;;;;5001282;28;20101;-67
2023/09/24 10:32:09;;;;;;;1.52;0.80;;;21.70;52.10;;;;;;5000442;28;20053;-67
2023/09/24 10:34:55;;;;;;;;;;;21.80;52.10;;;;;;5000933;28;20041;-69
2023/09/24 10:37:25;;;;;;;2.38;1.00;;;21.70;52.00;;;;;;4999181;28;20467;-68
2023/09/24 10:40:04;;;;;;;;;;;21.70;52.00;;;;;;4999512;28;20038;-68
2023/09/24 10:42:43;;;;;;;2.55;0.93;;;21.70;52.00;;;;;;5000083;28;20384;-69
2023/09/24 10:45:12;;;;;;;1.27;0.80;;;21.70;52.00;;;;;;4999809;28;20018;-65
2023/09/24 10:47:38;;;;;;;1.38;0.80;;;21.70;52.10;;;;;;5000308;28;20030;-64
2023/09/24 10:50:12;;;;;;;2.00;0.82;;;21.70;52.00;;;;;;5001157;28;20110;-65
2023/09/24 10:52:48;;;;;;;1.58;0.88;;;21.70;52.00;;;;;;4999111;28;20044;-65
2023/09/24 10:55:15;;;;;;;2.17;0.80;;;21.70;52.00;;;;;;4998489;28;20125;-67
2023/09/24 10:57:49;;;;;;;2.22;0.90;;;21.70;52.00;;;;;;5000518;28;20018;-68
2023/09/24 11:00:17;;;;;;;2.25;1.10;;;21.80;52.00;;;;;;4999022;28;20033;-69
2023/09/24 11:02:44;;;;;;;1.30;0.88;;;21.80;52.00;;;;;;5000781;28;20215;-69
2023/09/24 11:05:10;;;;;;;1.67;0.90;;;21.70;51.90;;;;;;4997897;28;20106;-69
2023/09/24 11:07:36;;;;;;;1.52;0.90;;;21.80;52.00;;;;;;4999402;28;20104;-69
2023/09/24 11:10:02;;;;;;;1.25;0.70;;;21.70;51.90;;;;;;4999136;28;20034;-68
2023/09/24 11:12:28;;;;;;;1.08;0.80;;;21.70;52.40;;;;;;4999515;28;20029;-68
2023/09/24 11:14:58;;;;;;;1.00;0.75;;;21.70;51.90;;;;;;4998655;28;20033;-69
2023/09/24 11:17:24;;;;;;;1.63;0.80;;;21.70;51.90;;;;;;4999157;28;20492;-69
2023/09/24 11:19:50;;;;;;;1.35;0.85;;;21.80;52.00;;;;;;5000378;28;20033;-68
2023/09/24 11:22:26;;;;;;;1.58;0.93;;;21.70;51.90;;;;;;4996658;28;20462;-68
2023/09/24 11:25:09;;;;;;;2.10;0.95;;;21.70;51.80;;;;;;5014571;28;20026;-69
2023/09/24 11:27:36;;;;;;;1.60;0.80;;;21.70;51.80;;;;;;4999097;28;20038;-68
2023/09/24 11:30:03;;;;;;;1.40;0.80;;;21.80;51.90;;;;;;5003574;28;20124;-67
2023/09/24 11:32:29;;;;;;;1.58;0.85;;;21.70;51.90;;;;;;4998635;28;20491;-67
2023/09/24 11:35:18;;;;;;;1.52;0.77;;;21.70;51.80;;;;;;4997758;28;20030;-68
2023/09/24 11:37:56;;;;;;;1.30;0.82;;;21.70;51.80;;;;;;4997837;28;20390;-68
2023/09/24 11:40:33;;;;;;;1.45;0.82;;;21.70;51.80;;;;;;5000586;28;20026;-66
2023/09/24 11:43:08;;;;;;;1.13;0.90;;;21.70;51.80;;;;;;5000536;28;20072;-67
2023/09/24 11:45:42;;;;;;;1.17;0.73;;;21.80;51.90;;;;;;4999562;28;20030;-62
2023/09/24 11:48:10;;;;;;;1.13;0.80;;;21.80;51.80;;;;;;4999447;28;20064;-63
2023/09/24 11:50:37;;;;;;;1.80;1.10;;;21.80;51.80;;;;;;4998400;28;20042;-63
2023/09/24 11:53:03;;;;;;;2.03;1.00;;;21.80;51.70;;;;;;4997214;28;20741;-63
2023/09/24 11:55:29;;;;;;;1.50;0.90;;;21.80;51.70;;;;;;4997088;28;20029;-64
2023/09/24 11:57:55;;;;;;;2.15;1.10;;;21.80;51.70;;;;;;4999084;28;20053;-65
2023/09/24 12:00:21;;;;;;;2.78;1.00;;;21.80;51.70;;;;;;4999185;28;20049;-65
2023/09/24 12:02:47;;;;;;;1.70;0.95;;;21.80;51.80;;;;;;4998721;28;20038;-65
2023/09/24 12:05:13;;;;;;;1.60;0.90;;;21.80;51.70;;;;;;4998980;28;20084;-68
2023/09/24 12:07:38;;;;;;;1.45;0.90;;;21.80;51.70;;;;;;4997456;28;20061;-67
2023/09/24 12:10:04;;;;;;;1.70;0.90;;;21.80;51.70;;;;;;4997924;28;20042;-68
2023/09/24 12:12:30;;;;;;;1.60;0.80;;;21.80;51.70;;;;;;4998046;28;20034;-68
2023/09/24 12:14:56;;;;;;;1.05;0.70;;;21.80;51.70;;;;;;5015441;28;20030;-67
2023/09/24 12:17:21;;;;;;;1.55;0.90;;;21.80;51.70;;;;;;5002184;28;20026;-67
2023/09/24 12:19:48;;;;;;;1.63;0.90;;;21.80;51.60;;;;;;5001773;28;20035;-68
2023/09/24 12:22:16;;;;;;;1.27;0.82;;;21.80;51.50;;;;;;5001156;28;20014;-67
2023/09/24 12:24:42;;;;;;;1.90;1.10;;;21.70;51.40;;;;;;5001982;28;20057;-66
2023/09/24 12:27:08;;;;;;;1.70;1.05;;;21.80;51.50;;;;;;5001615;28;20028;-67
2023/09/24 12:29:34;;;;;;;1.48;0.85;;;21.80;51.50;;;;;;5002619;28;20026;-67
2023/09/24 12:31:59;;;;;;;2.08;1.00;;;21.70;51.40;;;;;;5003249;28;20026;-67
2023/09/24 12:34:25;;;;;;;1.38;0.80;;;21.80;51.40;;;;;;5000553;28;20029;-67
2023/09/24 12:36:50;;;;;;;2.33;0.93;;;21.80;51.30;;;;;;5001043;28;20022;-68
2023/09/24 12:39:20;;;;;;;2.17;1.00;;;21.80;51.30;;;;;;4999920;28;20026;-67
2023/09/24 12:41:49;;;;;;;1.75;0.90;;;21.80;51.30;;;;;;5001978;28;20045;-67
2023/09/24 12:44:15;;;;;;;1.88;0.93;;;21.80;51.80;;;;;;5003059;28;20026;-67
2023/09/24 12:46:41;;;;;;;1.70;0.90;;;21.80;51.30;;;;;;5002086;28;20085;-68
2023/09/24 12:49:07;;;;;;;1.85;1.00;;;21.80;51.30;;;;;;5001372;28;20467;-67
2023/09/24 12:51:32;;;;;;;1.92;0.90;;;21.80;51.30;;;;;;5000446;28;20073;-68